Terminal Aerodrome Forecast
Issued by NWS Sioux Falls, SD

Home | Current Version | Previous Version | Graphics & Text | Print | Product List | Glossary Off
Versions: 1 2 3 4 5 6 7 8 9 10 11 12

000
FTUS43 KFSD 271720
TAFFSD
TAF
KFSD 271720Z 2718/2818 22005KT P6SM VCSH SCT060 OVC100
     FM272100 27006KT P6SM SCT060 BKN100
     FM272300 28005KT P6SM OVC080
     FM280100 29005KT P6SM SCT120
     FM281200 32009KT P6SM FEW250=

USA.gov is the U.S. government's official web portal to all federal, state and local government web resources and services.